Main page
METAR-TAF:

METAR-TAF

Airports :

Philip Municipal Airport

Philip, South Dakota, United States

latitude: 44-03-04N, longitude: 101-36-04W, elevation: 2207 ft

Current weather observation

The report was made 50 minutes ago, at 20:55 UTC
Wind 8 mph from the South
Temperature 54°F
Humidity 22%
Pressure 29.72 in. Hg
Visibility: 10 miles
Clear sky

METAR: KPHP 162055Z AUTO 17007KT 10SM CLR 12/M09 A2972 RMK AO2 SLP076 T01171089 56033

Time: 14:45 (21:45 UTC)


TAF: missing

Weather observations and forecasts of more than 4000 airports (METAR and TAF reports).

The available stations are represented by yellow and red dots on the map.

Hover mouse over dot to see the name of the station.

Then click to see weather observations and forecasts.

To change the map : click on the green buttons with a black cross to zoom in, on the green button with a dash to zoom out, or on the green arrows for adjacent maps.


METAR-TAF: